sensor_id;sensor_type;location;lat;lon;timestamp;temperature;humidity
11639;DHT22;5875;35.940;126.892;2022-12-18T00:01:32;0.70;39.10
11639;DHT22;5875;35.940;126.892;2022-12-18T00:04:02;1.00;36.40
11639;DHT22;5875;35.940;126.892;2022-12-18T00:06:30;1.30;34.60
11639;DHT22;5875;35.940;126.892;2022-12-18T00:08:59;1.60;30.60
11639;DHT22;5875;35.940;126.892;2022-12-18T00:11:29;1.80;30.60
11639;DHT22;5875;35.940;126.892;2022-12-18T00:13:57;2.20;28.70
11639;DHT22;5875;35.940;126.892;2022-12-18T00:16:26;2.40;28.10
11639;DHT22;5875;35.940;126.892;2022-12-18T00:18:56;2.70;26.00
11639;DHT22;5875;35.940;126.892;2022-12-18T00:21:23;3.00;24.50
11639;DHT22;5875;35.940;126.892;2022-12-18T00:23:51;3.40;23.10
11639;DHT22;5875;35.940;126.892;2022-12-18T00:26:32;3.70;21.60
11639;DHT22;5875;35.940;126.892;2022-12-18T00:29:06;4.10;19.20
11639;DHT22;5875;35.940;126.892;2022-12-18T00:31:33;4.40;17.40
11639;DHT22;5875;35.940;126.892;2022-12-18T00:34:01;4.70;16.50
11639;DHT22;5875;35.940;126.892;2022-12-18T00:36:33;5.00;14.40
11639;DHT22;5875;35.940;126.892;2022-12-18T00:39:03;5.40;13.50
11639;DHT22;5875;35.940;126.892;2022-12-18T00:41:31;5.70;13.40
11639;DHT22;5875;35.940;126.892;2022-12-18T00:44:18;6.10;11.80
11639;DHT22;5875;35.940;126.892;2022-12-18T00:46:46;6.30;9.40
11639;DHT22;5875;35.940;126.892;2022-12-18T00:49:15;6.30;5.30
11639;DHT22;5875;35.940;126.892;2022-12-18T00:51:42;5.90;1.50
11639;DHT22;5875;35.940;126.892;2022-12-18T00:54:09;5.80;1.20
11639;DHT22;5875;35.940;126.892;2022-12-18T00:56:38;5.50;1.00
11639;DHT22;5875;35.940;126.892;2022-12-18T00:59:05;5.50;1.00
11639;DHT22;5875;35.940;126.892;2022-12-18T01:01:33;5.90;8.80
11639;DHT22;5875;35.940;126.892;2022-12-18T01:04:02;6.20;2.90
11639;DHT22;5875;35.940;126.892;2022-12-18T01:06:29;6.20;1.00
11639;DHT22;5875;35.940;126.892;2022-12-18T01:08:57;6.40;1.00
11639;DHT22;5875;35.940;126.892;2022-12-18T01:11:25;6.70;1.00
11639;DHT22;5875;35.940;126.892;2022-12-18T01:13:53;7.00;1.00
11639;DHT22;5875;35.940;126.892;2022-12-18T01:16:22;7.10;1.00
11639;DHT22;5875;35.940;126.892;2022-12-18T01:18:52;7.20;1.00
11639;DHT22;5875;35.940;126.892;2022-12-18T01:21:20;7.40;1.00
11639;DHT22;5875;35.940;126.892;2022-12-18T01:23:52;7.60;1.00
11639;DHT22;5875;35.940;126.892;2022-12-18T01:26:20;7.70;1.00
11639;DHT22;5875;35.940;126.892;2022-12-18T01:28:47;7.90;1.00
11639;DHT22;5875;35.940;126.892;2022-12-18T01:31:18;8.00;1.00
11639;DHT22;5875;35.940;126.892;2022-12-18T01:33:46;8.20;1.00
11639;DHT22;5875;35.940;126.892;2022-12-18T01:36:23;8.10;1.00
11639;DHT22;5875;35.940;126.892;2022-12-18T01:38:51;7.90;1.00
11639;DHT22;5875;35.940;126.892;2022-12-18T01:41:23;8.50;1.00
11639;DHT22;5875;35.940;126.892;2022-12-18T01:43:54;8.50;1.00
11639;DHT22;5875;35.940;126.892;2022-12-18T01:46:24;8.40;1.00
11639;DHT22;5875;35.940;126.892;2022-12-18T01:48:55;8.60;1.00
11639;DHT22;5875;35.940;126.892;2022-12-18T01:51:23;8.90;1.00
11639;DHT22;5875;35.940;126.892;2022-12-18T01:53:51;8.80;1.00
11639;DHT22;5875;35.940;126.892;2022-12-18T01:56:20;8.90;1.00
11639;DHT22;5875;35.940;126.892;2022-12-18T01:59:07;9.20;1.00
11639;DHT22;5875;35.940;126.892;2022-12-18T02:01:37;9.20;1.00
11639;DHT22;5875;35.940;126.892;2022-12-18T02:04:21;9.20;1.00
11639;DHT22;5875;35.940;126.892;2022-12-18T02:12:25;9.10;1.00
11639;DHT22;5875;35.940;126.892;2022-12-18T02:15:04;9.00;1.00
11639;DHT22;5875;35.940;126.892;2022-12-18T02:20:23;8.90;1.00
11639;DHT22;5875;35.940;126.892;2022-12-18T02:28:30;8.70;1.00
11639;DHT22;5875;35.940;126.892;2022-12-18T02:31:01;8.90;1.00
11639;DHT22;5875;35.940;126.892;2022-12-18T02:33:31;8.60;1.00
11639;DHT22;5875;35.940;126.892;2022-12-18T02:36:00;8.40;1.00
11639;DHT22;5875;35.940;126.892;2022-12-18T02:38:29;8.50;1.00
11639;DHT22;5875;35.940;126.892;2022-12-18T02:40:57;8.50;1.00
11639;DHT22;5875;35.940;126.892;2022-12-18T02:43:25;8.50;1.00
11639;DHT22;5875;35.940;126.892;2022-12-18T02:45:57;8.10;1.00
11639;DHT22;5875;35.940;126.892;2022-12-18T02:48:29;8.10;1.00
11639;DHT22;5875;35.940;126.892;2022-12-18T02:51:25;8.00;1.00
11639;DHT22;5875;35.940;126.892;2022-12-18T02:54:10;7.90;1.00
11639;DHT22;5875;35.940;126.892;2022-12-18T02:56:50;8.00;1.00
11639;DHT22;5875;35.940;126.892;2022-12-18T02:59:36;7.80;1.00
11639;DHT22;5875;35.940;126.892;2022-12-18T03:04:56;7.50;1.00
11639;DHT22;5875;35.940;126.892;2022-12-18T03:07:49;7.30;1.00
11639;DHT22;5875;35.940;126.892;2022-12-18T03:10:25;7.50;1.00
11639;DHT22;5875;35.940;126.892;2022-12-18T03:13:00;7.20;1.00
11639;DHT22;5875;35.940;126.892;2022-12-18T03:15:36;7.10;1.00
11639;DHT22;5875;35.940;126.892;2022-12-18T03:18:11;7.10;1.00
11639;DHT22;5875;35.940;126.892;2022-12-18T03:20:40;7.20;1.00
11639;DHT22;5875;35.940;126.892;2022-12-18T03:23:15;7.30;1.00
11639;DHT22;5875;35.940;126.892;2022-12-18T03:25:45;7.20;1.00
11639;DHT22;5875;35.940;126.892;2022-12-18T03:28:16;7.20;1.00
11639;DHT22;5875;35.940;126.892;2022-12-18T03:30:45;7.30;1.00
11639;DHT22;5875;35.940;126.892;2022-12-18T03:33:53;7.30;1.00
11639;DHT22;5875;35.940;126.892;2022-12-18T03:36:20;7.50;1.00
11639;DHT22;5875;35.940;126.892;2022-12-18T03:38:48;7.50;1.00
11639;DHT22;5875;35.940;126.892;2022-12-18T03:41:29;7.60;1.00
11639;DHT22;5875;35.940;126.892;2022-12-18T03:44:20;7.90;1.00
11639;DHT22;5875;35.940;126.892;2022-12-18T03:52:48;7.80;1.00
11639;DHT22;5875;35.940;126.892;2022-12-18T03:55:18;8.10;1.00
11639;DHT22;5875;35.940;126.892;2022-12-18T03:57:47;8.10;1.00
11639;DHT22;5875;35.940;126.892;2022-12-18T04:00:17;8.00;1.00
11639;DHT22;5875;35.940;126.892;2022-12-18T04:02:51;7.80;1.00
11639;DHT22;5875;35.940;126.892;2022-12-18T04:05:20;7.50;1.00
11639;DHT22;5875;35.940;126.892;2022-12-18T04:07:50;7.30;1.00
11639;DHT22;5875;35.940;126.892;2022-12-18T04:10:19;7.10;1.00
11639;DHT22;5875;35.940;126.892;2022-12-18T04:12:46;7.20;1.00
11639;DHT22;5875;35.940;126.892;2022-12-18T04:15:13;7.00;1.00
11639;DHT22;5875;35.940;126.892;2022-12-18T04:17:48;7.00;1.00
11639;DHT22;5875;35.940;126.892;2022-12-18T04:20:16;7.00;6.20
11639;DHT22;5875;35.940;126.892;2022-12-18T04:22:44;6.80;1.00
11639;DHT22;5875;35.940;126.892;2022-12-18T04:25:11;6.60;4.60
11639;DHT22;5875;35.940;126.892;2022-12-18T04:27:38;6.60;1.00
11639;DHT22;5875;35.940;126.892;2022-12-18T04:30:06;6.50;1.00
11639;DHT22;5875;35.940;126.892;2022-12-18T04:32:34;6.40;1.00
11639;DHT22;5875;35.940;126.892;2022-12-18T04:35:02;6.40;1.00
11639;DHT22;5875;35.940;126.892;2022-12-18T04:37:30;6.30;1.00
11639;DHT22;5875;35.940;126.892;2022-12-18T04:39:57;6.30;1.00
11639;DHT22;5875;35.940;126.892;2022-12-18T04:42:25;6.40;2.10
11639;DHT22;5875;35.940;126.892;2022-12-18T04:44:52;6.30;1.00
11639;DHT22;5875;35.940;126.892;2022-12-18T04:47:19;6.30;4.10
11639;DHT22;5875;35.940;126.892;2022-12-18T04:49:46;6.40;1.40
11639;DHT22;5875;35.940;126.892;2022-12-18T04:52:13;6.40;2.40
11639;DHT22;5875;35.940;126.892;2022-12-18T04:54:40;6.30;1.00
11639;DHT22;5875;35.940;126.892;2022-12-18T04:57:08;6.50;1.00
11639;DHT22;5875;35.940;126.892;2022-12-18T04:59:35;6.50;1.00
11639;DHT22;5875;35.940;126.892;2022-12-18T05:02:02;6.60;1.00
11639;DHT22;5875;35.940;126.892;2022-12-18T05:04:29;6.60;1.00
11639;DHT22;5875;35.940;126.892;2022-12-18T05:06:56;6.80;1.00
11639;DHT22;5875;35.940;126.892;2022-12-18T05:09:23;6.90;1.00
11639;DHT22;5875;35.940;126.892;2022-12-18T05:11:51;6.70;1.00
11639;DHT22;5875;35.940;126.892;2022-12-18T05:14:18;6.80;1.00
11639;DHT22;5875;35.940;126.892;2022-12-18T05:16:45;6.90;1.00
11639;DHT22;5875;35.940;126.892;2022-12-18T05:19:12;6.90;1.00
11639;DHT22;5875;35.940;126.892;2022-12-18T05:21:39;7.10;1.00
11639;DHT22;5875;35.940;126.892;2022-12-18T05:24:07;7.10;1.00
11639;DHT22;5875;35.940;126.892;2022-12-18T05:26:34;7.10;1.00
11639;DHT22;5875;35.940;126.892;2022-12-18T05:29:01;7.10;1.00
11639;DHT22;5875;35.940;126.892;2022-12-18T05:31:28;7.10;1.00
11639;DHT22;5875;35.940;126.892;2022-12-18T05:33:55;7.20;1.00
11639;DHT22;5875;35.940;126.892;2022-12-18T05:36:23;7.20;1.00
11639;DHT22;5875;35.940;126.892;2022-12-18T05:38:50;7.20;1.00
11639;DHT22;5875;35.940;126.892;2022-12-18T05:41:17;7.20;1.00
11639;DHT22;5875;35.940;126.892;2022-12-18T05:43:44;7.30;1.00
11639;DHT22;5875;35.940;126.892;2022-12-18T05:46:14;7.30;1.00
11639;DHT22;5875;35.940;126.892;2022-12-18T05:48:42;7.20;1.00
11639;DHT22;5875;35.940;126.892;2022-12-18T05:51:14;7.20;1.00
11639;DHT22;5875;35.940;126.892;2022-12-18T05:53:43;7.20;1.00
11639;DHT22;5875;35.940;126.892;2022-12-18T05:56:15;7.20;1.00
11639;DHT22;5875;35.940;126.892;2022-12-18T05:58:43;7.10;1.00
11639;DHT22;5875;35.940;126.892;2022-12-18T06:01:14;7.10;1.00
11639;DHT22;5875;35.940;126.892;2022-12-18T06:03:42;7.10;1.00
11639;DHT22;5875;35.940;126.892;2022-12-18T06:06:17;7.00;1.00
11639;DHT22;5875;35.940;126.892;2022-12-18T06:08:45;7.00;1.00
11639;DHT22;5875;35.940;126.892;2022-12-18T06:11:15;6.90;1.00
11639;DHT22;5875;35.940;126.892;2022-12-18T06:13:43;6.80;1.00
11639;DHT22;5875;35.940;126.892;2022-12-18T06:16:10;6.80;1.00
11639;DHT22;5875;35.940;126.892;2022-12-18T06:18:38;6.80;1.00
11639;DHT22;5875;35.940;126.892;2022-12-18T06:21:05;6.80;1.00
11639;DHT22;5875;35.940;126.892;2022-12-18T06:23:32;6.80;1.00
11639;DHT22;5875;35.940;126.892;2022-12-18T06:26:08;6.70;1.00
11639;DHT22;5875;35.940;126.892;2022-12-18T06:28:36;6.60;1.00
11639;DHT22;5875;35.940;126.892;2022-12-18T06:31:04;6.60;1.00
11639;DHT22;5875;35.940;126.892;2022-12-18T06:33:32;6.70;1.00
11639;DHT22;5875;35.940;126.892;2022-12-18T06:36:07;6.70;1.00
11639;DHT22;5875;35.940;126.892;2022-12-18T06:38:37;6.50;1.00
11639;DHT22;5875;35.940;126.892;2022-12-18T06:41:09;6.40;1.00
11639;DHT22;5875;35.940;126.892;2022-12-18T06:43:37;6.30;1.00
11639;DHT22;5875;35.940;126.892;2022-12-18T06:46:05;6.40;1.00
11639;DHT22;5875;35.940;126.892;2022-12-18T06:48:32;6.40;1.00
11639;DHT22;5875;35.940;126.892;2022-12-18T06:51:00;6.50;2.40
11639;DHT22;5875;35.940;126.892;2022-12-18T06:53:27;6.40;1.00
11639;DHT22;5875;35.940;126.892;2022-12-18T06:56:02;6.40;1.00
11639;DHT22;5875;35.940;126.892;2022-12-18T06:58:30;6.40;1.00
11639;DHT22;5875;35.940;126.892;2022-12-18T07:01:04;6.40;1.00
11639;DHT22;5875;35.940;126.892;2022-12-18T07:03:32;6.40;1.50
11639;DHT22;5875;35.940;126.892;2022-12-18T07:06:00;6.40;1.60
11639;DHT22;5875;35.940;126.892;2022-12-18T07:08:29;6.30;1.00
11639;DHT22;5875;35.940;126.892;2022-12-18T07:10:57;6.30;1.20
11639;DHT22;5875;35.940;126.892;2022-12-18T07:13:24;6.30;1.00
11639;DHT22;5875;35.940;126.892;2022-12-18T07:15:51;6.30;1.00
11639;DHT22;5875;35.940;126.892;2022-12-18T07:18:18;6.30;4.00
11639;DHT22;5875;35.940;126.892;2022-12-18T07:20:46;6.20;1.00
11639;DHT22;5875;35.940;126.892;2022-12-18T07:23:13;6.20;1.00
11639;DHT22;5875;35.940;126.892;2022-12-18T07:25:40;6.10;1.00
11639;DHT22;5875;35.940;126.892;2022-12-18T07:28:08;6.00;1.00
11639;DHT22;5875;35.940;126.892;2022-12-18T07:30:37;6.00;1.00
11639;DHT22;5875;35.940;126.892;2022-12-18T07:33:04;5.90;1.00
11639;DHT22;5875;35.940;126.892;2022-12-18T07:35:33;5.80;1.00
11639;DHT22;5875;35.940;126.892;2022-12-18T07:38:00;5.90;1.00
11639;DHT22;5875;35.940;126.892;2022-12-18T07:40:27;5.70;1.00
11639;DHT22;5875;35.940;126.892;2022-12-18T07:42:54;5.50;1.00
11639;DHT22;5875;35.940;126.892;2022-12-18T07:45:22;5.50;1.00
11639;DHT22;5875;35.940;126.892;2022-12-18T07:47:49;5.40;1.00
11639;DHT22;5875;35.940;126.892;2022-12-18T07:50:16;5.30;1.00
11639;DHT22;5875;35.940;126.892;2022-12-18T07:52:43;5.10;1.00
11639;DHT22;5875;35.940;126.892;2022-12-18T07:55:10;5.10;1.00
11639;DHT22;5875;35.940;126.892;2022-12-18T07:57:37;5.00;1.00
11639;DHT22;5875;35.940;126.892;2022-12-18T08:00:05;4.80;1.00
11639;DHT22;5875;35.940;126.892;2022-12-18T08:02:32;4.80;1.00
11639;DHT22;5875;35.940;126.892;2022-12-18T08:05:00;4.70;1.00
11639;DHT22;5875;35.940;126.892;2022-12-18T08:07:27;4.50;1.00
11639;DHT22;5875;35.940;126.892;2022-12-18T08:09:54;4.40;1.00
11639;DHT22;5875;35.940;126.892;2022-12-18T08:12:21;4.30;1.00
11639;DHT22;5875;35.940;126.892;2022-12-18T08:14:48;4.30;1.00
11639;DHT22;5875;35.940;126.892;2022-12-18T08:17:15;4.00;1.00
11639;DHT22;5875;35.940;126.892;2022-12-18T08:19:43;3.80;1.00
11639;DHT22;5875;35.940;126.892;2022-12-18T08:22:10;3.60;1.00
11639;DHT22;5875;35.940;126.892;2022-12-18T08:24:37;3.40;1.00
11639;DHT22;5875;35.940;126.892;2022-12-18T08:27:04;3.30;1.00
11639;DHT22;5875;35.940;126.892;2022-12-18T08:29:31;3.20;1.00
11639;DHT22;5875;35.940;126.892;2022-12-18T08:32:00;3.10;1.00
11639;DHT22;5875;35.940;126.892;2022-12-18T08:34:27;3.00;1.00
11639;DHT22;5875;35.940;126.892;2022-12-18T08:36:54;2.90;1.00
11639;DHT22;5875;35.940;126.892;2022-12-18T08:39:22;2.80;1.00
11639;DHT22;5875;35.940;126.892;2022-12-18T08:41:49;2.70;1.00
11639;DHT22;5875;35.940;126.892;2022-12-18T08:44:34;2.60;1.00
11639;DHT22;5875;35.940;126.892;2022-12-18T08:47:05;2.50;1.00
11639;DHT22;5875;35.940;126.892;2022-12-18T08:49:33;2.40;1.00
11639;DHT22;5875;35.940;126.892;2022-12-18T08:52:01;2.30;1.00
11639;DHT22;5875;35.940;126.892;2022-12-18T08:54:29;2.20;1.00
11639;DHT22;5875;35.940;126.892;2022-12-18T08:56:56;2.10;1.00
11639;DHT22;5875;35.940;126.892;2022-12-18T08:59:23;2.00;1.00
11639;DHT22;5875;35.940;126.892;2022-12-18T09:01:53;2.00;1.00
11639;DHT22;5875;35.940;126.892;2022-12-18T09:04:20;1.90;1.00
11639;DHT22;5875;35.940;126.892;2022-12-18T09:06:47;1.90;1.00
11639;DHT22;5875;35.940;126.892;2022-12-18T09:09:15;1.80;1.00
11639;DHT22;5875;35.940;126.892;2022-12-18T09:11:42;1.70;1.00
11639;DHT22;5875;35.940;126.892;2022-12-18T09:14:10;1.70;1.00
11639;DHT22;5875;35.940;126.892;2022-12-18T09:16:37;1.60;1.00
11639;DHT22;5875;35.940;126.892;2022-12-18T09:19:05;1.50;1.00
11639;DHT22;5875;35.940;126.892;2022-12-18T09:21:34;1.50;1.00
11639;DHT22;5875;35.940;126.892;2022-12-18T09:24:02;1.40;1.00
11639;DHT22;5875;35.940;126.892;2022-12-18T09:26:29;1.20;1.00
11639;DHT22;5875;35.940;126.892;2022-12-18T09:28:56;1.20;1.00
11639;DHT22;5875;35.940;126.892;2022-12-18T09:31:24;1.20;1.00
11639;DHT22;5875;35.940;126.892;2022-12-18T09:33:52;1.10;1.00
11639;DHT22;5875;35.940;126.892;2022-12-18T09:36:19;1.00;1.00
11639;DHT22;5875;35.940;126.892;2022-12-18T09:38:46;1.00;1.00
11639;DHT22;5875;35.940;126.892;2022-12-18T09:41:39;0.90;1.00
11639;DHT22;5875;35.940;126.892;2022-12-18T09:44:32;0.80;1.00
11639;DHT22;5875;35.940;126.892;2022-12-18T09:47:27;0.80;1.00
11639;DHT22;5875;35.940;126.892;2022-12-18T09:50:22;0.70;1.00
11639;DHT22;5875;35.940;126.892;2022-12-18T09:52:54;0.80;1.00
11639;DHT22;5875;35.940;126.892;2022-12-18T09:55:35;0.70;1.00
11639;DHT22;5875;35.940;126.892;2022-12-18T10:00:56;0.50;1.00
11639;DHT22;5875;35.940;126.892;2022-12-18T10:03:24;0.50;1.40
11639;DHT22;5875;35.940;126.892;2022-12-18T10:06:19;0.40;1.50
11639;DHT22;5875;35.940;126.892;2022-12-18T10:12:02;0.20;4.10
11639;DHT22;5875;35.940;126.892;2022-12-18T10:15:13;0.20;4.90
11639;DHT22;5875;35.940;126.892;2022-12-18T10:20:12;0.00;5.10
11639;DHT22;5875;35.940;126.892;2022-12-18T10:28:14;-0.20;6.70
11639;DHT22;5875;35.940;126.892;2022-12-18T10:30:43;-0.30;7.40
11639;DHT22;5875;35.940;126.892;2022-12-18T10:33:22;-0.30;8.20
11639;DHT22;5875;35.940;126.892;2022-12-18T10:35:51;-0.30;8.80
11639;DHT22;5875;35.940;126.892;2022-12-18T10:40:54;-0.40;9.60
11639;DHT22;5875;35.940;126.892;2022-12-18T10:43:36;-0.40;10.50
11639;DHT22;5875;35.940;126.892;2022-12-18T10:51:29;-0.40;11.90
11639;DHT22;5875;35.940;126.892;2022-12-18T10:54:17;-0.50;12.70
11639;DHT22;5875;35.940;126.892;2022-12-18T10:56:45;-0.50;12.00
11639;DHT22;5875;35.940;126.892;2022-12-18T10:59:15;-0.60;11.50
11639;DHT22;5875;35.940;126.892;2022-12-18T11:01:52;-0.60;12.40
11639;DHT22;5875;35.940;126.892;2022-12-18T11:04:31;-0.70;13.30
11639;DHT22;5875;35.940;126.892;2022-12-18T11:07:05;-0.70;12.80
11639;DHT22;5875;35.940;126.892;2022-12-18T11:09:38;-0.80;12.40
11639;DHT22;5875;35.940;126.892;2022-12-18T11:12:25;-0.90;12.30
11639;DHT22;5875;35.940;126.892;2022-12-18T11:14:55;-0.90;13.00
11639;DHT22;5875;35.940;126.892;2022-12-18T11:17:32;-0.90;12.50
11639;DHT22;5875;35.940;126.892;2022-12-18T11:20:07;-0.90;12.70
11639;DHT22;5875;35.940;126.892;2022-12-18T11:22:35;-0.90;13.10
11639;DHT22;5875;35.940;126.892;2022-12-18T11:27:40;-1.10;14.50
11639;DHT22;5875;35.940;126.892;2022-12-18T11:30:27;-1.10;15.20
11639;DHT22;5875;35.940;126.892;2022-12-18T11:33:16;-1.20;14.50
11639;DHT22;5875;35.940;126.892;2022-12-18T11:35:58;-1.20;14.60
11639;DHT22;5875;35.940;126.892;2022-12-18T11:38:35;-1.20;13.90
11639;DHT22;5875;35.940;126.892;2022-12-18T11:41:29;-1.30;14.00
11639;DHT22;5875;35.940;126.892;2022-12-18T11:45:03;-1.30;13.70
11639;DHT22;5875;35.940;126.892;2022-12-18T11:50:20;-1.40;13.60
11639;DHT22;5875;35.940;126.892;2022-12-18T11:52:49;-1.40;15.00
11639;DHT22;5875;35.940;126.892;2022-12-18T11:55:24;-1.40;15.90
11639;DHT22;5875;35.940;126.892;2022-12-18T11:58:04;-1.40;16.10
11639;DHT22;5875;35.940;126.892;2022-12-18T12:00:36;-1.40;16.90
11639;DHT22;5875;35.940;126.892;2022-12-18T12:03:47;-1.50;16.60
11639;DHT22;5875;35.940;126.892;2022-12-18T12:09:23;-1.90;13.60
11639;DHT22;5875;35.940;126.892;2022-12-18T12:17:47;-2.50;18.40
11639;DHT22;5875;35.940;126.892;2022-12-18T12:20:22;-2.50;15.70
11639;DHT22;5875;35.940;126.892;2022-12-18T12:25:57;-2.60;19.60
11639;DHT22;5875;35.940;126.892;2022-12-18T12:28:48;-2.40;20.60
11639;DHT22;5875;35.940;126.892;2022-12-18T12:37:02;-2.20;19.80
11639;DHT22;5875;35.940;126.892;2022-12-18T12:39:40;-2.30;19.90
11639;DHT22;5875;35.940;126.892;2022-12-18T12:42:41;-2.20;20.00
11639;DHT22;5875;35.940;126.892;2022-12-18T12:46:03;-2.20;20.20
11639;DHT22;5875;35.940;126.892;2022-12-18T12:48:50;-2.10;20.10
11639;DHT22;5875;35.940;126.892;2022-12-18T12:51:26;-2.00;20.20
11639;DHT22;5875;35.940;126.892;2022-12-18T12:53:57;-2.00;20.70
11639;DHT22;5875;35.940;126.892;2022-12-18T12:56:39;-2.00;20.90
11639;DHT22;5875;35.940;126.892;2022-12-18T12:59:23;-2.00;20.80
11639;DHT22;5875;35.940;126.892;2022-12-18T13:07:49;-2.30;19.40
11639;DHT22;5875;35.940;126.892;2022-12-18T13:13:12;-2.30;19.70
11639;DHT22;5875;35.940;126.892;2022-12-18T13:15:50;-2.40;20.00
11639;DHT22;5875;35.940;126.892;2022-12-18T13:18:30;-2.40;21.00
11639;DHT22;5875;35.940;126.892;2022-12-18T13:31:14;-2.40;22.20
11639;DHT22;5875;35.940;126.892;2022-12-18T13:33:45;-2.50;21.60
11639;DHT22;5875;35.940;126.892;2022-12-18T13:36:15;-2.60;22.20
11639;DHT22;5875;35.940;126.892;2022-12-18T13:38:43;-2.70;21.10
11639;DHT22;5875;35.940;126.892;2022-12-18T13:41:24;-2.80;22.70
11639;DHT22;5875;35.940;126.892;2022-12-18T13:43:54;-2.80;24.50
11639;DHT22;5875;35.940;126.892;2022-12-18T13:46:43;-2.70;25.40
11639;DHT22;5875;35.940;126.892;2022-12-18T13:51:43;-2.60;24.60
11639;DHT22;5875;35.940;126.892;2022-12-18T13:54:32;-2.60;24.60
11639;DHT22;5875;35.940;126.892;2022-12-18T13:57:00;-2.50;24.70
11639;DHT22;5875;35.940;126.892;2022-12-18T13:59:35;-2.50;24.90
11639;DHT22;5875;35.940;126.892;2022-12-18T14:02:26;-2.50;25.80
11639;DHT22;5875;35.940;126.892;2022-12-18T14:04:55;-2.40;26.00
11639;DHT22;5875;35.940;126.892;2022-12-18T14:07:25;-2.40;25.70
11639;DHT22;5875;35.940;126.892;2022-12-18T14:09:55;-2.40;26.10
11639;DHT22;5875;35.940;126.892;2022-12-18T14:12:35;-2.40;25.90
11639;DHT22;5875;35.940;126.892;2022-12-18T14:15:31;-2.40;26.20
11639;DHT22;5875;35.940;126.892;2022-12-18T14:18:00;-2.40;26.10
11639;DHT22;5875;35.940;126.892;2022-12-18T14:20:31;-2.40;26.40
11639;DHT22;5875;35.940;126.892;2022-12-18T14:22:59;-2.30;26.70
11639;DHT22;5875;35.940;126.892;2022-12-18T14:25:28;-2.30;26.80
11639;DHT22;5875;35.940;126.892;2022-12-18T14:30:40;-2.30;27.90
11639;DHT22;5875;35.940;126.892;2022-12-18T14:33:16;-2.20;28.30
11639;DHT22;5875;35.940;126.892;2022-12-18T14:38:28;-2.20;29.40
11639;DHT22;5875;35.940;126.892;2022-12-18T14:40:58;-2.20;30.60
11639;DHT22;5875;35.940;126.892;2022-12-18T14:43:27;-2.20;31.00
11639;DHT22;5875;35.940;126.892;2022-12-18T14:45:55;-2.20;31.80
11639;DHT22;5875;35.940;126.892;2022-12-18T14:48:43;-2.20;33.30
11639;DHT22;5875;35.940;126.892;2022-12-18T14:51:20;-2.20;32.40
11639;DHT22;5875;35.940;126.892;2022-12-18T14:53:53;-2.20;32.40
11639;DHT22;5875;35.940;126.892;2022-12-18T14:56:32;-2.20;32.90
11639;DHT22;5875;35.940;126.892;2022-12-18T14:59:02;-2.10;33.90
11639;DHT22;5875;35.940;126.892;2022-12-18T15:01:36;-2.10;34.90
11639;DHT22;5875;35.940;126.892;2022-12-18T15:04:24;-2.10;35.80
11639;DHT22;5875;35.940;126.892;2022-12-18T15:07:20;-2.10;36.80
11639;DHT22;5875;35.940;126.892;2022-12-18T15:10:13;-2.00;37.30
11639;DHT22;5875;35.940;126.892;2022-12-18T15:12:48;-2.00;37.60
11639;DHT22;5875;35.940;126.892;2022-12-18T15:20:46;-2.00;39.90
11639;DHT22;5875;35.940;126.892;2022-12-18T15:23:47;-2.00;40.30
11639;DHT22;5875;35.940;126.892;2022-12-18T15:26:17;-2.00;41.00
11639;DHT22;5875;35.940;126.892;2022-12-18T15:28:53;-2.00;40.20
11639;DHT22;5875;35.940;126.892;2022-12-18T15:31:32;-2.00;39.10
11639;DHT22;5875;35.940;126.892;2022-12-18T15:34:12;-2.10;38.60
11639;DHT22;5875;35.940;126.892;2022-12-18T15:36:40;-2.20;38.50
11639;DHT22;5875;35.940;126.892;2022-12-18T15:39:09;-2.20;38.00
11639;DHT22;5875;35.940;126.892;2022-12-18T15:41:36;-2.30;37.80
11639;DHT22;5875;35.940;126.892;2022-12-18T15:44:21;-2.30;38.40
11639;DHT22;5875;35.940;126.892;2022-12-18T15:46:49;-2.30;38.40
11639;DHT22;5875;35.940;126.892;2022-12-18T15:49:16;-2.40;38.80
11639;DHT22;5875;35.940;126.892;2022-12-18T15:51:43;-2.40;40.60
11639;DHT22;5875;35.940;126.892;2022-12-18T15:54:13;-2.40;41.30
11639;DHT22;5875;35.940;126.892;2022-12-18T15:56:42;-2.40;40.60
11639;DHT22;5875;35.940;126.892;2022-12-18T15:59:27;-2.50;39.90
11639;DHT22;5875;35.940;126.892;2022-12-18T16:01:54;-2.60;39.20
11639;DHT22;5875;35.940;126.892;2022-12-18T16:04:23;-2.60;39.20
11639;DHT22;5875;35.940;126.892;2022-12-18T16:06:51;-2.60;39.20
11639;DHT22;5875;35.940;126.892;2022-12-18T16:09:18;-2.60;38.60
11639;DHT22;5875;35.940;126.892;2022-12-18T16:11:45;-2.60;37.80
11639;DHT22;5875;35.940;126.892;2022-12-18T16:14:21;-2.60;37.60
11639;DHT22;5875;35.940;126.892;2022-12-18T16:16:51;-2.60;38.10
11639;DHT22;5875;35.940;126.892;2022-12-18T16:19:19;-2.60;38.90
11639;DHT22;5875;35.940;126.892;2022-12-18T16:21:48;-2.70;40.10
11639;DHT22;5875;35.940;126.892;2022-12-18T16:24:21;-2.70;40.80
11639;DHT22;5875;35.940;126.892;2022-12-18T16:26:49;-2.70;40.90
11639;DHT22;5875;35.940;126.892;2022-12-18T16:29:23;-2.80;39.80
11639;DHT22;5875;35.940;126.892;2022-12-18T16:31:58;-2.80;40.00
11639;DHT22;5875;35.940;126.892;2022-12-18T16:34:30;-2.80;39.60
11639;DHT22;5875;35.940;126.892;2022-12-18T16:37:08;-2.90;39.80
11639;DHT22;5875;35.940;126.892;2022-12-18T16:39:36;-2.80;40.00
11639;DHT22;5875;35.940;126.892;2022-12-18T16:42:06;-2.90;39.00
11639;DHT22;5875;35.940;126.892;2022-12-18T16:44:34;-2.90;38.40
11639;DHT22;5875;35.940;126.892;2022-12-18T16:47:01;-2.90;38.00
11639;DHT22;5875;35.940;126.892;2022-12-18T16:49:29;-2.90;38.40
11639;DHT22;5875;35.940;126.892;2022-12-18T16:51:56;-3.00;38.20
11639;DHT22;5875;35.940;126.892;2022-12-18T16:54:24;-3.10;38.70
11639;DHT22;5875;35.940;126.892;2022-12-18T16:56:51;-3.10;40.10
11639;DHT22;5875;35.940;126.892;2022-12-18T16:59:19;-3.30;39.10
11639;DHT22;5875;35.940;126.892;2022-12-18T17:01:46;-3.30;40.60
11639;DHT22;5875;35.940;126.892;2022-12-18T17:04:14;-3.40;41.50
11639;DHT22;5875;35.940;126.892;2022-12-18T17:06:45;-3.20;42.00
11639;DHT22;5875;35.940;126.892;2022-12-18T17:09:18;-3.20;40.80
11639;DHT22;5875;35.940;126.892;2022-12-18T17:11:52;-3.10;41.30
11639;DHT22;5875;35.940;126.892;2022-12-18T17:14:22;-3.10;40.90
11639;DHT22;5875;35.940;126.892;2022-12-18T17:16:50;-3.00;40.30
11639;DHT22;5875;35.940;126.892;2022-12-18T17:19:17;-3.00;40.20
11639;DHT22;5875;35.940;126.892;2022-12-18T17:21:47;-3.00;41.50
11639;DHT22;5875;35.940;126.892;2022-12-18T17:24:15;-3.00;41.80
11639;DHT22;5875;35.940;126.892;2022-12-18T17:26:43;-3.00;42.00
11639;DHT22;5875;35.940;126.892;2022-12-18T17:29:16;-3.00;42.10
11639;DHT22;5875;35.940;126.892;2022-12-18T17:31:44;-3.00;41.80
11639;DHT22;5875;35.940;126.892;2022-12-18T17:34:11;-3.00;41.60
11639;DHT22;5875;35.940;126.892;2022-12-18T17:36:39;-3.10;40.90
11639;DHT22;5875;35.940;126.892;2022-12-18T17:39:07;-3.20;40.30
11639;DHT22;5875;35.940;126.892;2022-12-18T17:41:34;-3.20;40.30
11639;DHT22;5875;35.940;126.892;2022-12-18T17:44:04;-3.20;39.90
11639;DHT22;5875;35.940;126.892;2022-12-18T17:46:33;-3.20;40.10